Time;durP1;ratioP1;P1;durP2;ratioP2;P2;SDS_P1;SDS_P2;PMS_P1;PMS_P2;Temp;Humidity;BMP_temperature;BMP_pressure;BME280_temperature;BME280_humidity;BME280_pressure;Samples;Min_cycle;Max_cycle;Signal;HPM_P1;HPM_P2
2022/12/26 00:01:08;;;;;;;23.00;12.75;;;;;;;;;;4994009;28;20464;-67
2022/12/26 00:03:33;;;;;;;28.70;14.35;;;;;;;;;;4993984;28;20026;-67
2022/12/26 00:05:59;;;;;;;21.73;12.13;;;;;;;;;;4994054;28;20072;-68
2022/12/26 00:08:24;;;;;;;22.25;10.50;;;;;;;;;;4993828;28;20484;-66
2022/12/26 00:10:49;;;;;;;22.83;12.00;;;;;;;;;;4993412;28;20041;-67
2022/12/26 00:13:15;;;;;;;23.38;12.13;;;;;;;;;;4992532;28;20073;-68
2022/12/26 00:15:41;;;;;;;22.98;12.15;;;;;;;;;;4993740;28;20025;-68
2022/12/26 00:18:07;;;;;;;24.08;12.10;;;;;;;;;;4993676;28;20030;-68
2022/12/26 00:20:32;;;;;;;25.70;10.98;;;;;;;;;;4993603;28;20391;-68
2022/12/26 00:22:59;;;;;;;21.27;12.77;;;;;;;;;;4992290;28;20107;-68
2022/12/26 00:25:25;;;;;;;21.30;11.27;;;;;;;;;;4993295;28;20057;-68
2022/12/26 00:27:50;;;;;;;22.85;12.25;;;;;;;;;;4993631;28;20431;-68
2022/12/26 00:30:15;;;;;;;20.13;11.15;;;;;;;;;;4993691;28;20408;-68
2022/12/26 00:32:41;;;;;;;20.13;10.27;;;;;;;;;;4993653;28;20030;-68
2022/12/26 00:35:07;;;;;;;18.42;10.93;;;;;;;;;;4993423;28;20038;-68
2022/12/26 00:37:32;;;;;;;25.15;11.35;;;;;;;;;;4993163;28;20046;-67
2022/12/26 00:39:58;;;;;;;19.73;11.68;;;;;;;;;;4993560;28;20023;-67
2022/12/26 00:42:23;;;;;;;22.85;12.70;;;;;;;;;;4993596;28;20030;-68
2022/12/26 00:44:48;;;;;;;13.05;7.97;;;;;;;;;;4993557;28;20487;-66
2022/12/26 00:47:14;;;;;;;19.98;10.73;;;;;;;;;;4993573;28;20109;-66
2022/12/26 00:49:39;;;;;;;23.25;12.50;;;;;;;;;;4993505;28;20026;-66
2022/12/26 00:52:05;;;;;;;17.80;9.77;;;;;;;;;;4993345;28;20503;-67
2022/12/26 00:54:30;;;;;;;15.68;8.88;;;;;;;;;;4993516;28;20484;-68
2022/12/26 00:56:55;;;;;;;18.23;10.68;;;;;;;;;;4993283;28;20034;-68
2022/12/26 00:59:21;;;;;;;20.58;12.00;;;;;;;;;;4992095;28;20029;-68
2022/12/26 01:01:46;;;;;;;25.25;12.13;;;;;;;;;;4983759;28;20050;-67
2022/12/26 01:04:12;;;;;;;23.40;12.48;;;;;;;;;;4985169;28;20112;-68
2022/12/26 01:06:37;;;;;;;21.63;12.18;;;;;;;;;;4982356;28;20394;-68
2022/12/26 01:09:03;;;;;;;15.82;8.95;;;;;;;;;;4984900;28;20029;-68
2022/12/26 01:11:40;;;;;;;18.05;10.65;;;;;;;;;;4986343;28;20019;-68
2022/12/26 01:14:11;;;;;;;18.50;9.95;;;;;;;;;;4986136;28;20034;-67
2022/12/26 01:16:37;;;;;;;;;;;;;;;;;;4987032;28;20121;-68
2022/12/26 01:19:03;;;;;;;16.98;9.40;;;;;;;;;;4987911;28;19918;-68
2022/12/26 01:21:28;;;;;;;16.77;10.77;;;;;;;;;;4986161;28;20524;-68
2022/12/26 01:23:54;;;;;;;19.38;11.63;;;;;;;;;;4986907;28;20050;-68
2022/12/26 01:28:54;;;;;;;16.88;9.60;;;;;;;;;;5561169;23;20411;-67
2022/12/26 01:31:21;;;;;;;13.43;8.63;;;;;;;;;;4991659;28;20142;-68
2022/12/26 01:33:47;;;;;;;19.95;10.65;;;;;;;;;;4983566;28;20812;-68
2022/12/26 01:36:13;;;;;;;18.63;11.60;;;;;;;;;;4977544;28;20154;-68
2022/12/26 01:38:38;;;;;;;19.10;11.77;;;;;;;;;;4996492;28;20471;-68
2022/12/26 01:41:16;;;;;;;15.63;8.30;;;;;;;;;;4996771;28;20031;-66
2022/12/26 01:43:57;;;;;;;15.75;9.90;;;;;;;;;;4996458;28;20027;-67
2022/12/26 01:46:31;;;;;;;16.73;10.43;;;;;;;;;;4996415;28;20076;-66
2022/12/26 01:49:00;;;;;;;17.77;10.25;;;;;;;;;;4996609;28;20030;-67
2022/12/26 01:51:31;;;;;;;20.15;10.50;;;;;;;;;;4995361;28;20033;-68
2022/12/26 01:53:59;;;;;;;21.67;10.82;;;;;;;;;;4996693;28;20030;-68
2022/12/26 01:56:31;;;;;;;15.70;9.60;;;;;;;;;;4996349;28;20065;-68
2022/12/26 01:59:18;;;;;;;14.05;9.15;;;;;;;;;;4996381;28;20041;-68
2022/12/26 02:01:47;;;;;;;13.80;9.95;;;;;;;;;;4996441;28;20070;-68
2022/12/26 02:07:03;;;;;;;16.42;9.85;;;;;;;;;;4996660;28;20379;-68
2022/12/26 02:09:28;;;;;;;17.00;9.90;;;;;;;;;;4996286;28;20018;-68
2022/12/26 02:12:20;;;;;;;19.52;10.60;;;;;;;;;;4996023;28;20022;-68
2022/12/26 02:14:46;;;;;;;15.68;10.30;;;;;;;;;;4994020;28;20109;-68
2022/12/26 02:17:12;;;;;;;16.88;10.82;;;;;;;;;;4996123;28;20030;-68
2022/12/26 02:20:11;;;;;;;14.38;8.65;;;;;;;;;;4996068;28;20024;-68
2022/12/26 02:23:12;;;;;;;15.23;9.45;;;;;;;;;;4993920;28;20435;-68
2022/12/26 02:25:52;;;;;;;18.13;9.93;;;;;;;;;;4974425;28;20069;-67
2022/12/26 02:28:29;;;;;;;18.48;10.93;;;;;;;;;;4976765;28;20121;-68
2022/12/26 02:31:11;;;;;;;17.45;10.32;;;;;;;;;;4993802;28;20037;-68
2022/12/26 02:33:59;;;;;;;16.15;10.27;;;;;;;;;;4993831;28;20034;-66
2022/12/26 02:36:46;;;;;;;17.80;10.00;;;;;;;;;;4993656;28;20370;-68
2022/12/26 02:39:20;;;;;;;18.05;10.00;;;;;;;;;;4993531;28;20066;-68
2022/12/26 02:42:07;;;;;;;17.58;9.52;;;;;;;;;;4993420;28;20030;-67
2022/12/26 02:47:33;;;;;;;14.63;8.68;;;;;;;;;;4993749;28;20046;-67
2022/12/26 03:13:40;;;;;;;15.07;8.77;;;;;;;;;;4995399;28;20435;-68
2022/12/26 03:18:59;;;;;;;15.10;9.07;;;;;;;;;;4995038;28;20041;-67
2022/12/26 03:21:28;;;;;;;13.20;9.57;;;;;;;;;;4995046;28;20471;-68
2022/12/26 03:23:55;;;;;;;16.25;8.68;;;;;;;;;;4994725;28;20327;-67
2022/12/26 03:26:42;;;;;;;14.82;8.20;;;;;;;;;;4994922;28;20030;-66
2022/12/26 03:32:00;;;;;;;13.68;8.98;;;;;;;;;;5014639;28;20104;-68
2022/12/26 03:34:27;;;;;;;15.27;8.70;;;;;;;;;;5014210;28;20022;-68
2022/12/26 03:37:26;;;;;;;16.13;8.50;;;;;;;;;;5014301;28;20382;-66
2022/12/26 04:21:01;;;;;;;11.77;7.07;;;;;;;;;;4953307;29;20046;-68
2022/12/26 04:46:21;;;;;;;11.00;7.65;;;;;;;;;;5013207;28;20625;-68
2022/12/26 04:51:57;;;;;;;12.60;7.88;;;;;;;;;;4971787;28;20042;-67
2022/12/26 04:54:23;;;;;;;12.80;6.95;;;;;;;;;;4972015;28;20030;-68
2022/12/26 04:56:49;;;;;;;10.10;7.35;;;;;;;;;;4971938;28;20113;-66
2022/12/26 04:59:15;;;;;;;10.27;7.20;;;;;;;;;;4971912;28;20030;-67
2022/12/26 05:10:01;;;;;;;10.48;6.93;;;;;;;;;;4971909;28;20583;-67
2022/12/26 05:12:26;;;;;;;13.30;7.80;;;;;;;;;;4971925;28;20109;-68
2022/12/26 05:14:52;;;;;;;12.05;7.30;;;;;;;;;;4971727;28;20023;-68
2022/12/26 05:31:02;;;;;;;9.48;6.65;;;;;;;;;;4973994;28;20042;-66
2022/12/26 05:36:13;;;;;;;10.70;6.75;;;;;;;;;;4973543;28;20158;-68
2022/12/26 05:38:39;;;;;;;11.35;6.97;;;;;;;;;;4973417;28;20038;-68
2022/12/26 05:41:04;;;;;;;10.88;6.53;;;;;;;;;;4973691;28;20031;-67
2022/12/26 05:43:30;;;;;;;10.43;6.57;;;;;;;;;;4973748;28;20109;-68
2022/12/26 05:45:56;;;;;;;11.98;6.60;;;;;;;;;;4973726;28;20027;-67
2022/12/26 05:48:21;;;;;;;9.07;6.35;;;;;;;;;;4973600;28;20030;-67
2022/12/26 05:50:47;;;;;;;9.05;6.55;;;;;;;;;;4973161;28;20059;-68
2022/12/26 05:53:12;;;;;;;9.63;6.80;;;;;;;;;;4973516;28;20476;-68
2022/12/26 05:55:38;;;;;;;10.07;7.00;;;;;;;;;;4973879;28;20030;-66
2022/12/26 05:58:04;;;;;;;10.70;6.45;;;;;;;;;;4976942;28;20034;-66
2022/12/26 06:00:29;;;;;;;10.25;6.10;;;;;;;;;;4976999;28;20081;-68
2022/12/26 06:02:57;;;;;;;9.18;6.43;;;;;;;;;;4977078;28;20089;-67
2022/12/26 06:05:22;;;;;;;9.02;6.00;;;;;;;;;;4976799;28;20035;-68
2022/12/26 06:07:48;;;;;;;10.98;6.68;;;;;;;;;;4976753;28;20022;-67
2022/12/26 06:10:13;;;;;;;8.27;5.95;;;;;;;;;;4976831;28;20384;-68
2022/12/26 06:12:39;;;;;;;8.70;5.95;;;;;;;;;;4976697;28;20034;-68
2022/12/26 06:15:05;;;;;;;7.43;5.65;;;;;;;;;;4976870;28;20031;-68
2022/12/26 06:17:30;;;;;;;8.38;6.32;;;;;;;;;;4976586;28;20035;-68
2022/12/26 06:19:55;;;;;;;8.18;5.65;;;;;;;;;;4976318;28;20035;-68
2022/12/26 06:22:21;;;;;;;11.80;5.75;;;;;;;;;;4976712;28;20166;-68
2022/12/26 06:24:47;;;;;;;9.48;5.90;;;;;;;;;;4976580;28;20031;-68
2022/12/26 06:27:12;;;;;;;7.22;5.88;;;;;;;;;;4976575;28;20031;-68
2022/12/26 06:29:37;;;;;;;8.93;5.40;;;;;;;;;;4976171;28;20038;-69
2022/12/26 06:32:03;;;;;;;9.40;5.57;;;;;;;;;;4976426;28;20089;-68
2022/12/26 06:34:29;;;;;;;8.18;5.47;;;;;;;;;;4976040;28;20102;-68
2022/12/26 06:36:55;;;;;;;6.72;5.00;;;;;;;;;;4976107;28;20031;-68
2022/12/26 06:39:21;;;;;;;10.88;4.72;;;;;;;;;;4976197;28;20023;-68
2022/12/26 06:41:46;;;;;;;6.72;4.63;;;;;;;;;;4976161;28;20037;-68
2022/12/26 06:44:12;;;;;;;5.80;4.28;;;;;;;;;;4976221;28;20034;-68
2022/12/26 06:46:37;;;;;;;6.43;4.32;;;;;;;;;;4976149;28;20117;-66
2022/12/26 06:49:05;;;;;;;6.35;4.05;;;;;;;;;;4975856;28;20040;-68
2022/12/26 06:51:32;;;;;;;5.80;3.97;;;;;;;;;;4976138;28;20392;-66
2022/12/26 06:54:01;;;;;;;5.78;3.72;;;;;;;;;;4976047;28;20396;-67
2022/12/26 06:56:26;;;;;;;5.18;2.80;;;;;;;;;;4975979;28;20106;-66
2022/12/26 06:59:00;;;;;;;7.82;3.00;;;;;;;;;;4975980;28;20165;-66
2022/12/26 07:01:27;;;;;;;3.67;2.83;;;;;;;;;;4975805;28;20058;-66
2022/12/26 07:03:54;;;;;;;5.57;2.80;;;;;;;;;;4975960;28;20088;-67
2022/12/26 07:06:19;;;;;;;4.13;2.85;;;;;;;;;;4975948;28;20027;-66
2022/12/26 07:08:45;;;;;;;6.13;2.80;;;;;;;;;;4975434;28;20038;-66
2022/12/26 07:11:15;;;;;;;3.38;2.58;;;;;;;;;;4975808;28;20031;-66
2022/12/26 07:13:42;;;;;;;4.90;2.95;;;;;;;;;;4975719;28;20118;-66
2022/12/26 07:16:07;;;;;;;4.93;3.08;;;;;;;;;;4975410;28;20038;-66
2022/12/26 07:18:33;;;;;;;4.07;3.05;;;;;;;;;;4975207;28;20039;-66
2022/12/26 07:20:58;;;;;;;5.32;3.55;;;;;;;;;;4975635;28;20023;-66
2022/12/26 07:23:24;;;;;;;4.90;3.25;;;;;;;;;;4975562;28;20106;-69
2022/12/26 07:25:49;;;;;;;4.95;3.30;;;;;;;;;;4975371;28;20379;-68
2022/12/26 07:28:15;;;;;;;5.35;3.42;;;;;;;;;;4975121;28;20050;-67
2022/12/26 07:30:47;;;;;;;4.13;3.17;;;;;;;;;;4975222;28;20031;-68
2022/12/26 07:33:13;;;;;;;5.80;3.30;;;;;;;;;;4975381;28;20034;-67
2022/12/26 07:35:38;;;;;;;5.85;3.80;;;;;;;;;;4975193;28;20022;-68
2022/12/26 07:38:04;;;;;;;5.20;3.60;;;;;;;;;;4974925;28;20085;-68
2022/12/26 07:40:29;;;;;;;4.75;3.38;;;;;;;;;;4975197;28;20026;-68
2022/12/26 07:42:55;;;;;;;4.97;3.15;;;;;;;;;;4975190;28;20059;-68
2022/12/26 07:45:20;;;;;;;6.25;3.40;;;;;;;;;;4974915;28;20026;-68
2022/12/26 07:47:45;;;;;;;3.55;2.72;;;;;;;;;;4974940;28;20181;-67
2022/12/26 07:50:11;;;;;;;5.65;3.10;;;;;;;;;;4974830;28;20549;-68
2022/12/26 07:52:36;;;;;;;5.70;2.50;;;;;;;;;;4974845;28;20420;-68
2022/12/26 07:55:03;;;;;;;6.40;3.40;;;;;;;;;;4974987;28;20054;-67
2022/12/26 07:57:29;;;;;;;3.08;1.92;;;;;;;;;;4974789;28;20027;-68
2022/12/26 07:59:54;;;;;;;3.15;2.13;;;;;;;;;;4974640;28;20498;-68
2022/12/26 08:02:20;;;;;;;4.55;2.20;;;;;;;;;;4974791;28;20419;-67
2022/12/26 08:04:45;;;;;;;3.10;2.38;;;;;;;;;;4974713;28;20352;-68
2022/12/26 08:07:10;;;;;;;4.15;1.55;;;;;;;;;;4989328;28;20068;-67
2022/12/26 08:09:38;;;;;;;2.15;1.70;;;;;;;;;;4974634;28;20058;-67
2022/12/26 08:12:04;;;;;;;2.13;1.40;;;;;;;;;;4974604;28;20364;-68
2022/12/26 08:14:29;;;;;;;2.90;1.90;;;;;;;;;;4974319;28;20037;-68
2022/12/26 08:16:55;;;;;;;2.47;1.77;;;;;;;;;;4974579;28;20027;-67
2022/12/26 08:19:20;;;;;;;2.75;1.80;;;;;;;;;;4973826;28;20080;-66
2022/12/26 08:21:45;;;;;;;4.25;1.95;;;;;;;;;;4974346;28;20055;-67
2022/12/26 08:24:12;;;;;;;3.20;1.80;;;;;;;;;;4974538;28;20038;-67
2022/12/26 08:26:37;;;;;;;3.47;2.33;;;;;;;;;;4974411;28;20031;-67
2022/12/26 08:29:03;;;;;;;3.90;2.72;;;;;;;;;;4989652;28;20045;-68
2022/12/26 08:31:28;;;;;;;42.22;20.83;;;;;;;;;;5013460;28;20379;-68
2022/12/26 08:33:56;;;;;;;21.13;9.43;;;;;;;;;;5013514;28;20028;-68
2022/12/26 08:36:21;;;;;;;6.00;3.28;;;;;;;;;;5013286;28;20386;-68
2022/12/26 08:38:48;;;;;;;5.00;2.90;;;;;;;;;;5013037;28;20046;-68
2022/12/26 08:41:16;;;;;;;13.05;5.00;;;;;;;;;;5013110;28;20032;-68
2022/12/26 08:43:41;;;;;;;9.23;4.38;;;;;;;;;;5012918;28;20037;-69
2022/12/26 08:46:10;;;;;;;12.90;4.90;;;;;;;;;;5013067;28;20022;-67
2022/12/26 08:48:37;;;;;;;16.13;5.57;;;;;;;;;;5012920;28;20093;-68
2022/12/26 08:51:10;;;;;;;20.30;5.40;;;;;;;;;;5013096;28;20376;-67
2022/12/26 08:53:36;;;;;;;12.38;4.00;;;;;;;;;;5013058;28;20033;-68
2022/12/26 08:56:04;;;;;;;8.52;3.40;;;;;;;;;;5013082;28;20049;-67
2022/12/26 08:58:29;;;;;;;3.50;2.40;;;;;;;;;;5012699;28;20026;-67
2022/12/26 09:01:03;;;;;;;9.02;3.00;;;;;;;;;;5013052;28;20026;-67
2022/12/26 09:03:29;;;;;;;5.45;2.40;;;;;;;;;;5013071;28;20032;-68
2022/12/26 09:05:58;;;;;;;7.75;3.20;;;;;;;;;;5013015;28;20022;-67
2022/12/26 09:08:24;;;;;;;15.48;4.20;;;;;;;;;;5012815;28;20474;-67
2022/12/26 09:10:49;;;;;;;31.60;8.35;;;;;;;;;;5012921;28;20098;-66
2022/12/26 09:13:14;;;;;;;6.72;2.47;;;;;;;;;;5012720;28;20053;-68
2022/12/26 09:15:40;;;;;;;15.02;4.20;;;;;;;;;;5012679;28;20022;-68
2022/12/26 09:18:06;;;;;;;4.35;1.90;;;;;;;;;;5012676;28;20026;-68
2022/12/26 09:20:32;;;;;;;21.83;9.13;;;;;;;;;;5012697;28;20029;-68
2022/12/26 09:22:58;;;;;;;4.55;2.20;;;;;;;;;;5012801;28;20022;-68
2022/12/26 09:25:24;;;;;;;3.42;1.98;;;;;;;;;;5012771;28;20026;-67
2022/12/26 09:27:52;;;;;;;2.83;1.67;;;;;;;;;;5012491;28;20030;-68
2022/12/26 09:30:19;;;;;;;3.72;1.80;;;;;;;;;;4977432;28;20051;-68
2022/12/26 09:32:45;;;;;;;2.83;1.90;;;;;;;;;;4977464;28;20085;-68
2022/12/26 09:35:10;;;;;;;4.10;2.42;;;;;;;;;;4977260;28;20030;-68
2022/12/26 09:37:36;;;;;;;8.98;3.30;;;;;;;;;;5006265;28;20128;-68
2022/12/26 09:40:03;;;;;;;5.93;3.38;;;;;;;;;;5016255;28;20029;-68
2022/12/26 09:43:13;;;;;;;4.10;2.50;;;;;;;;;;5015593;28;20105;-68
2022/12/26 09:46:05;;;;;;;6.47;3.08;;;;;;;;;;5014018;28;20042;-68
2022/12/26 09:48:38;;;;;;;5.22;2.58;;;;;;;;;;5016022;28;20038;-68
2022/12/26 09:51:03;;;;;;;4.28;2.35;;;;;;;;;;5010766;28;20463;-68
2022/12/26 09:53:35;;;;;;;8.55;3.78;;;;;;;;;;4977012;28;20066;-68
2022/12/26 09:56:06;;;;;;;4.28;2.97;;;;;;;;;;4976472;28;20439;-68
2022/12/26 09:58:59;;;;;;;3.53;2.20;;;;;;;;;;4976713;28;20532;-68
2022/12/26 10:01:28;;;;;;;3.10;2.05;;;;;;;;;;4976786;28;20038;-68
2022/12/26 10:03:56;;;;;;;4.47;1.87;;;;;;;;;;4981957;28;20106;-68
2022/12/26 10:06:29;;;;;;;5.22;2.33;;;;;;;;;;4976835;28;20376;-67
2022/12/26 10:09:31;;;;;;;8.25;3.47;;;;;;;;;;4979065;28;20081;-68
2022/12/26 10:11:57;;;;;;;4.53;2.10;;;;;;;;;;4986295;28;20365;-66
2022/12/26 10:14:40;;;;;;;6.03;2.15;;;;;;;;;;4993137;28;20129;-68
2022/12/26 10:17:29;;;;;;;3.67;2.03;;;;;;;;;;4992727;28;20065;-66
2022/12/26 10:20:20;;;;;;;3.90;2.20;;;;;;;;;;4993711;28;20053;-67
2022/12/26 10:23:17;;;;;;;7.90;3.70;;;;;;;;;;4995818;28;20427;-67
2022/12/26 10:25:49;;;;;;;7.78;3.25;;;;;;;;;;4995375;28;20023;-66
2022/12/26 10:28:27;;;;;;;7.75;4.07;;;;;;;;;;5006300;28;20069;-68
2022/12/26 10:30:55;;;;;;;4.32;2.70;;;;;;;;;;5004508;28;20073;-67
2022/12/26 10:33:35;;;;;;;4.88;1.98;;;;;;;;;;4995576;28;20022;-68
2022/12/26 10:36:01;;;;;;;3.03;1.83;;;;;;;;;;4995528;28;20113;-66
2022/12/26 10:38:40;;;;;;;3.30;1.98;;;;;;;;;;4995264;28;20036;-66
2022/12/26 10:41:26;;;;;;;3.50;2.38;;;;;;;;;;4995128;28;20391;-67
2022/12/26 10:43:53;;;;;;;3.22;2.10;;;;;;;;;;4994953;28;20475;-67
2022/12/26 10:46:25;;;;;;;3.75;1.80;;;;;;;;;;4995194;28;20384;-67
2022/12/26 10:48:50;;;;;;;6.93;2.38;;;;;;;;;;4995292;28;20141;-67
2022/12/26 10:51:16;;;;;;;3.78;2.00;;;;;;;;;;4995285;28;20475;-66
2022/12/26 10:53:50;;;;;;;3.88;2.10;;;;;;;;;;4994973;28;20415;-68
2022/12/26 10:56:16;;;;;;;5.43;2.70;;;;;;;;;;4995072;28;20082;-68
2022/12/26 10:58:43;;;;;;;12.07;4.60;;;;;;;;;;4995066;28;20042;-67
2022/12/26 11:01:27;;;;;;;4.10;2.20;;;;;;;;;;4995179;28;20475;-66
2022/12/26 11:03:54;;;;;;;3.53;2.28;;;;;;;;;;4994960;28;20478;-67
2022/12/26 11:06:22;;;;;;;3.05;2.40;;;;;;;;;;4994838;28;20399;-68
2022/12/26 11:08:49;;;;;;;12.52;4.80;;;;;;;;;;4994714;28;20117;-69
2022/12/26 11:11:44;;;;;;;3.03;2.25;;;;;;;;;;4994509;28;20048;-68
2022/12/26 11:14:43;;;;;;;4.97;2.72;;;;;;;;;;4994738;28;20022;-67
2022/12/26 11:17:23;;;;;;;8.23;4.72;;;;;;;;;;4994704;28;20113;-69
2022/12/26 11:19:49;;;;;;;;;;;;;;;;;;4994944;28;20022;-68
2022/12/26 11:22:22;;;;;;;3.55;2.58;;;;;;;;;;4994658;28;20277;-68
2022/12/26 11:25:09;;;;;;;9.07;4.47;;;;;;;;;;4994831;28;20468;-68
2022/12/26 11:27:43;;;;;;;4.35;2.90;;;;;;;;;;4994487;28;20038;-68
2022/12/26 11:30:27;;;;;;;6.35;3.03;;;;;;;;;;5010902;28;20038;-68
2022/12/26 11:33:08;;;;;;;5.57;3.65;;;;;;;;;;5012781;28;20092;-65
2022/12/26 11:35:36;;;;;;;4.40;3.03;;;;;;;;;;5014007;28;20026;-68
2022/12/26 11:38:05;;;;;;;6.18;3.88;;;;;;;;;;5013429;28;20041;-68
2022/12/26 11:40:36;;;;;;;4.63;3.33;;;;;;;;;;5013778;28;20026;-68
2022/12/26 11:43:05;;;;;;;4.70;3.45;;;;;;;;;;5013339;28;20013;-68
2022/12/26 11:45:37;;;;;;;6.47;4.47;;;;;;;;;;4996239;28;20121;-68
2022/12/26 11:48:16;;;;;;;5.22;3.33;;;;;;;;;;5013602;28;20018;-68
2022/12/26 11:50:44;;;;;;;4.35;3.35;;;;;;;;;;5013865;28;20038;-68
2022/12/26 11:53:16;;;;;;;4.90;3.40;;;;;;;;;;5012966;28;20100;-69
2022/12/26 11:55:42;;;;;;;4.22;2.88;;;;;;;;;;5013178;28;20033;-69
2022/12/26 11:58:08;;;;;;;6.68;3.97;;;;;;;;;;5013430;28;20037;-68
2022/12/26 12:00:34;;;;;;;5.40;3.65;;;;;;;;;;5013236;28;20026;-68
2022/12/26 12:03:02;;;;;;;5.85;3.67;;;;;;;;;;5013311;28;20080;-66
2022/12/26 12:06:01;;;;;;;5.53;3.25;;;;;;;;;;5013382;28;20029;-67
2022/12/26 12:08:35;;;;;;;4.53;3.10;;;;;;;;;;5013394;28;20034;-68
2022/12/26 12:11:20;;;;;;;3.83;2.70;;;;;;;;;;5013319;28;20026;-66
2022/12/26 12:13:57;;;;;;;4.07;2.75;;;;;;;;;;5013214;28;20080;-66
2022/12/26 12:16:37;;;;;;;4.38;2.90;;;;;;;;;;5013080;28;20156;-66
2022/12/26 12:19:12;;;;;;;4.15;2.78;;;;;;;;;;5013205;28;20386;-66
2022/12/26 12:21:43;;;;;;;4.53;2.80;;;;;;;;;;5012855;28;20022;-66
2022/12/26 12:24:49;;;;;;;4.25;2.65;;;;;;;;;;5012898;28;20088;-66
2022/12/26 12:27:20;;;;;;;5.03;2.85;;;;;;;;;;5013045;28;20096;-67
2022/12/26 12:29:58;;;;;;;4.50;2.95;;;;;;;;;;5012307;28;20060;-66
2022/12/26 12:32:56;;;;;;;4.18;3.10;;;;;;;;;;5012874;28;20026;-66
2022/12/26 12:35:42;;;;;;;6.40;2.90;;;;;;;;;;5012927;28;20036;-66
2022/12/26 12:38:20;;;;;;;6.30;2.80;;;;;;;;;;5013098;28;20034;-66
2022/12/26 12:40:54;;;;;;;4.03;2.83;;;;;;;;;;5012922;28;20026;-66
2022/12/26 12:43:40;;;;;;;4.10;3.13;;;;;;;;;;5012946;28;20495;-66
2022/12/26 12:46:12;;;;;;;4.25;3.10;;;;;;;;;;5012881;28;20482;-67
2022/12/26 12:49:01;;;;;;;5.35;3.20;;;;;;;;;;5012573;28;20038;-66
2022/12/26 12:51:44;;;;;;;5.03;2.80;;;;;;;;;;5012719;28;20034;-67
2022/12/26 12:54:41;;;;;;;5.00;3.15;;;;;;;;;;5012530;28;20494;-67
2022/12/26 12:57:06;;;;;;;4.43;2.65;;;;;;;;;;5012613;28;20037;-66
2022/12/26 12:59:57;;;;;;;4.18;2.78;;;;;;;;;;5012674;28;20026;-66
2022/12/26 13:02:52;;;;;;;4.55;2.90;;;;;;;;;;4990662;28;20042;-67
2022/12/26 13:05:27;;;;;;;6.00;3.00;;;;;;;;;;4991705;28;20471;-68
2022/12/26 13:08:19;;;;;;;5.10;3.05;;;;;;;;;;4995025;28;20504;-67
2022/12/26 13:10:51;;;;;;;4.13;2.75;;;;;;;;;;4988445;28;20038;-68
2022/12/26 13:13:23;;;;;;;3.75;2.83;;;;;;;;;;4994895;28;20345;-67
2022/12/26 13:15:53;;;;;;;4.05;2.80;;;;;;;;;;4994815;28;20041;-68
2022/12/26 13:18:23;;;;;;;3.38;2.45;;;;;;;;;;4994492;28;20108;-67
2022/12/26 13:20:51;;;;;;;4.07;2.70;;;;;;;;;;4994716;28;20034;-68
2022/12/26 13:26:25;;;;;;;4.65;2.80;;;;;;;;;;4994875;28;20057;-68
2022/12/26 13:29:09;;;;;;;3.65;2.80;;;;;;;;;;4994043;28;20048;-68
2022/12/26 13:31:36;;;;;;;3.70;2.20;;;;;;;;;;4994533;28;20043;-68
2022/12/26 13:34:03;;;;;;;3.90;2.30;;;;;;;;;;4994223;28;20052;-68
2022/12/26 13:36:54;;;;;;;4.50;2.75;;;;;;;;;;4994252;28;20407;-68
2022/12/26 13:39:25;;;;;;;4.65;2.75;;;;;;;;;;5006625;28;20103;-67
2022/12/26 13:44:44;;;;;;;4.80;2.97;;;;;;;;;;5016410;28;20092;-67
2022/12/26 13:47:35;;;;;;;4.70;3.33;;;;;;;;;;5016019;28;20459;-68
2022/12/26 13:50:38;;;;;;;7.20;4.07;;;;;;;;;;5014643;28;20034;-68
2022/12/26 13:53:24;;;;;;;7.72;3.75;;;;;;;;;;5015842;28;20037;-68
2022/12/26 13:56:15;;;;;;;6.50;3.72;;;;;;;;;;5015901;28;20479;-68
2022/12/26 13:58:46;;;;;;;5.05;3.40;;;;;;;;;;4993587;28;20117;-67
2022/12/26 14:01:49;;;;;;;5.55;3.40;;;;;;;;;;4993840;28;20113;-67
2022/12/26 14:04:30;;;;;;;5.15;3.63;;;;;;;;;;4993776;28;20034;-68
2022/12/26 14:06:55;;;;;;;4.75;3.03;;;;;;;;;;4994058;28;20458;-68
2022/12/26 14:09:50;;;;;;;3.88;2.90;;;;;;;;;;4993936;28;20038;-67
2022/12/26 14:12:42;;;;;;;5.13;3.10;;;;;;;;;;4977556;28;20439;-67
2022/12/26 14:15:19;;;;;;;4.70;3.13;;;;;;;;;;4993846;28;20042;-66
2022/12/26 14:18:31;;;;;;;4.15;3.08;;;;;;;;;;4992192;28;20045;-68
2022/12/26 14:21:11;;;;;;;6.60;3.03;;;;;;;;;;4916742;29;20040;-68
2022/12/26 14:23:52;;;;;;;3.80;2.70;;;;;;;;;;4916586;29;20101;-68
2022/12/26 14:26:42;;;;;;;4.60;3.20;;;;;;;;;;4916635;29;20092;-68
2022/12/26 14:29:07;;;;;;;4.80;3.15;;;;;;;;;;4916027;29;20437;-68
2022/12/26 14:31:51;;;;;;;6.30;3.10;;;;;;;;;;4916290;29;20044;-66
2022/12/26 14:34:58;;;;;;;5.07;2.88;;;;;;;;;;4916589;29;20468;-67
2022/12/26 14:37:47;;;;;;;7.53;3.25;;;;;;;;;;4954426;29;20400;-67
2022/12/26 14:40:34;;;;;;;4.47;2.83;;;;;;;;;;4954626;29;20102;-68
2022/12/26 14:43:09;;;;;;;5.68;3.25;;;;;;;;;;4954705;29;20400;-68
2022/12/26 14:45:35;;;;;;;4.60;3.00;;;;;;;;;;4954476;29;20109;-67
2022/12/26 14:48:21;;;;;;;4.28;3.10;;;;;;;;;;4954300;29;20131;-68
2022/12/26 14:51:03;;;;;;;5.22;3.40;;;;;;;;;;4947669;29;20043;-66
2022/12/26 14:53:33;;;;;;;5.15;3.58;;;;;;;;;;4954395;29;20039;-66
2022/12/26 14:56:01;;;;;;;5.32;3.50;;;;;;;;;;4970097;28;20046;-66
2022/12/26 14:58:43;;;;;;;6.55;3.38;;;;;;;;;;5014523;28;20034;-66
2022/12/26 15:01:11;;;;;;;5.40;3.47;;;;;;;;;;5014418;28;20108;-66
2022/12/26 15:04:01;;;;;;;5.38;3.40;;;;;;;;;;5014793;28;20493;-68
2022/12/26 15:06:51;;;;;;;6.32;3.65;;;;;;;;;;5014703;28;20348;-67
2022/12/26 15:09:34;;;;;;;6.05;3.38;;;;;;;;;;5014770;28;20071;-68
2022/12/26 15:12:05;;;;;;;7.82;3.67;;;;;;;;;;5014584;28;20025;-67
2022/12/26 15:15:00;;;;;;;9.75;4.10;;;;;;;;;;5014407;28;20492;-67
2022/12/26 15:18:05;;;;;;;5.25;3.55;;;;;;;;;;5014325;28;20030;-67
2022/12/26 15:20:43;;;;;;;10.10;3.35;;;;;;;;;;5014276;28;20117;-67
2022/12/26 15:23:30;;;;;;;8.00;3.58;;;;;;;;;;5014347;28;20021;-68
2022/12/26 15:26:05;;;;;;;8.65;3.42;;;;;;;;;;5014265;28;20014;-67
2022/12/26 15:28:51;;;;;;;5.40;3.40;;;;;;;;;;5013687;28;20490;-67
2022/12/26 15:31:39;;;;;;;6.65;4.10;;;;;;;;;;5014214;28;20044;-67
2022/12/26 15:34:14;;;;;;;6.80;3.78;;;;;;;;;;5014132;28;20562;-67
2022/12/26 15:36:44;;;;;;;7.80;4.05;;;;;;;;;;5014142;28;20030;-67
2022/12/26 15:39:18;;;;;;;;;;;;;;;;;;5014279;28;20033;-67
2022/12/26 15:41:49;;;;;;;6.50;4.07;;;;;;;;;;5013878;28;19913;-68
2022/12/26 15:44:20;;;;;;;6.65;4.40;;;;;;;;;;5013685;28;20045;-68
2022/12/26 15:47:22;;;;;;;7.80;4.28;;;;;;;;;;5013996;28;20057;-67
2022/12/26 15:50:22;;;;;;;10.57;5.13;;;;;;;;;;5013906;28;20029;-67
2022/12/26 15:52:54;;;;;;;8.10;4.82;;;;;;;;;;5008993;28;20118;-67
2022/12/26 15:55:28;;;;;;;7.70;4.40;;;;;;;;;;5013812;28;20034;-67
2022/12/26 15:58:07;;;;;;;9.07;4.40;;;;;;;;;;5013520;28;20026;-68
2022/12/26 16:00:54;;;;;;;8.32;4.60;;;;;;;;;;5013401;28;20033;-68
2022/12/26 16:03:31;;;;;;;6.35;4.18;;;;;;;;;;5013693;28;20040;-68
2022/12/26 16:06:11;;;;;;;8.80;4.57;;;;;;;;;;5013490;28;20101;-67
2022/12/26 16:09:02;;;;;;;9.00;4.32;;;;;;;;;;5013741;28;20030;-68
2022/12/26 16:11:42;;;;;;;9.07;4.35;;;;;;;;;;5013774;28;20034;-67
2022/12/26 16:14:22;;;;;;;9.25;5.00;;;;;;;;;;5013321;28;20078;-67
2022/12/26 16:16:48;;;;;;;9.27;5.25;;;;;;;;;;5013409;28;20113;-66
2022/12/26 16:19:22;;;;;;;7.45;4.60;;;;;;;;;;5013334;28;20112;-66
2022/12/26 16:24:40;;;;;;;7.15;4.85;;;;;;;;;;5013394;28;20116;-66
2022/12/26 16:27:08;;;;;;;10.35;5.85;;;;;;;;;;4998913;28;20117;-66
2022/12/26 16:29:42;;;;;;;8.80;4.70;;;;;;;;;;5005357;28;20046;-67
2022/12/26 16:32:15;;;;;;;8.50;5.30;;;;;;;;;;5013351;28;20029;-67
2022/12/26 16:34:42;;;;;;;8.07;4.20;;;;;;;;;;5013161;28;20030;-65
2022/12/26 16:37:16;;;;;;;11.20;4.82;;;;;;;;;;5012947;28;20052;-66
2022/12/26 16:39:41;;;;;;;8.20;4.53;;;;;;;;;;5012612;28;20403;-67
2022/12/26 16:42:27;;;;;;;8.70;4.10;;;;;;;;;;5012811;28;20024;-67
2022/12/26 16:44:54;;;;;;;5.13;3.85;;;;;;;;;;5013138;28;20060;-66
2022/12/26 16:47:20;;;;;;;7.25;4.00;;;;;;;;;;5012786;28;20483;-66
2022/12/26 16:49:46;;;;;;;7.43;4.50;;;;;;;;;;5012897;28;20041;-68
2022/12/26 16:52:38;;;;;;;7.50;4.22;;;;;;;;;;5012870;28;20026;-67
2022/12/26 16:55:53;;;;;;;9.15;4.22;;;;;;;;;;5011894;28;20050;-67
2022/12/26 16:58:23;;;;;;;7.18;4.00;;;;;;;;;;5010585;28;20057;-67
2022/12/26 17:01:04;;;;;;;8.35;4.68;;;;;;;;;;5012796;28;20483;-67
2022/12/26 17:03:34;;;;;;;;;;;;;;;;;;5013288;28;20029;-67
2022/12/26 17:06:05;;;;;;;5.53;3.65;;;;;;;;;;5012861;28;19921;-68
2022/12/26 17:08:30;;;;;;;5.85;3.47;;;;;;;;;;5012796;28;20029;-66
2022/12/26 17:10:56;;;;;;;7.20;3.38;;;;;;;;;;5012596;28;20101;-66
2022/12/26 17:13:25;;;;;;;4.95;3.33;;;;;;;;;;5012707;28;20030;-67
2022/12/26 17:15:57;;;;;;;5.47;3.80;;;;;;;;;;5012782;28;20036;-67
2022/12/26 17:18:42;;;;;;;3.83;3.05;;;;;;;;;;5012259;28;20037;-66
2022/12/26 17:21:15;;;;;;;5.70;3.88;;;;;;;;;;5012926;28;20029;-66
2022/12/26 17:23:41;;;;;;;6.32;3.33;;;;;;;;;;5012812;28;20018;-66
2022/12/26 17:26:16;;;;;;;5.47;3.47;;;;;;;;;;5012374;28;20026;-66
2022/12/26 17:28:42;;;;;;;5.28;3.28;;;;;;;;;;5012484;28;20045;-66
2022/12/26 17:31:17;;;;;;;5.00;3.42;;;;;;;;;;5012635;28;20114;-67